Time;durP1;ratioP1;P1;durP2;ratioP2;P2;SDS_P1;SDS_P2;PMS_P1;PMS_P2;Temp;Humidity;BMP_temperature;BMP_pressure;BME280_temperature;BME280_humidity;BME280_pressure;Samples;Min_cycle;Max_cycle;Signal;HPM_P1;HPM_P2
2022/05/10 00:00:00;;;;;;;10.15;4.70;;;16.00;99.90;;;;;;5034670;28;20025;-37
2022/05/10 00:02:27;;;;;;;11.27;4.80;;;15.90;99.90;;;;;;5034618;28;20497;-36
2022/05/10 00:04:55;;;;;;;6.47;4.03;;;15.90;99.90;;;;;;5034609;28;20022;-36
2022/05/10 00:07:23;;;;;;;12.82;5.10;;;15.90;99.90;;;;;;5034548;28;20547;-37
2022/05/10 00:09:49;;;;;;;11.40;4.80;;;15.90;99.90;;;;;;5034575;28;20080;-37
2022/05/10 00:12:15;;;;;;;7.28;4.32;;;15.90;99.90;;;;;;5032716;28;20049;-37
2022/05/10 00:14:41;;;;;;;11.45;5.13;;;16.00;99.90;;;;;;5034441;28;20394;-37
2022/05/10 00:17:08;;;;;;;10.95;5.13;;;16.10;99.90;;;;;;5034467;28;20025;-37
2022/05/10 00:19:34;;;;;;;9.93;5.50;;;16.20;99.90;;;;;;5034421;28;20033;-37
2022/05/10 00:22:00;;;;;;;11.40;4.68;;;16.30;99.90;;;;;;5034320;28;20025;-36
2022/05/10 00:24:26;;;;;;;15.02;5.68;;;16.40;99.90;;;;;;5034271;28;20033;-36
2022/05/10 00:26:52;;;;;;;10.52;4.90;;;16.50;99.90;;;;;;5034230;28;20382;-39
2022/05/10 00:29:18;;;;;;;15.65;4.80;;;16.60;99.90;;;;;;5034176;28;20033;-45
2022/05/10 00:31:44;;;;;;;12.75;5.03;;;16.60;99.90;;;;;;5034388;28;20037;-35
2022/05/10 00:34:10;;;;;;;12.27;5.20;;;16.70;99.90;;;;;;5042811;28;20017;-36
2022/05/10 00:36:36;;;;;;;13.68;5.07;;;16.70;99.90;;;;;;5054006;28;20113;-35
2022/05/10 00:39:02;;;;;;;10.40;4.78;;;16.70;99.90;;;;;;5053820;28;20095;-31
2022/05/10 00:41:42;;;;;;;8.93;4.95;;;16.80;99.90;;;;;;5053825;28;20039;-35
2022/05/10 00:44:40;;;;;;;11.48;5.03;;;16.80;99.90;;;;;;5053739;28;20035;-30
2022/05/10 00:47:30;;;;;;;13.25;5.43;;;16.80;99.90;;;;;;5053789;28;20148;-28
2022/05/10 00:50:16;;;;;;;10.55;5.05;;;16.90;99.90;;;;;;5053779;28;20029;-28
2022/05/10 00:52:50;;;;;;;11.57;4.90;;;16.90;99.90;;;;;;5053492;28;20044;-27
2022/05/10 00:55:44;;;;;;;14.88;6.35;;;16.90;99.90;;;;;;5053702;28;20052;-47
2022/05/10 00:58:30;;;;;;;11.75;5.47;;;16.90;99.90;;;;;;5053607;28;20021;-37
2022/05/10 01:00:57;;;;;;;12.45;5.32;;;17.00;99.90;;;;;;5053648;28;20017;-36
2022/05/10 01:03:52;;;;;;;16.05;5.75;;;16.90;99.90;;;;;;5053490;28;20385;-41
2022/05/10 01:06:43;;;;;;;13.63;5.55;;;17.00;99.90;;;;;;5045479;28;20036;-37
2022/05/10 01:09:39;;;;;;;11.05;5.05;;;17.00;99.90;;;;;;5052175;28;20066;-37
2022/05/10 01:12:13;;;;;;;14.48;6.60;;;17.10;99.90;;;;;;5053463;28;20025;-37
2022/05/10 01:14:45;;;;;;;15.00;5.93;;;17.00;99.90;;;;;;5053356;28;20116;-36
2022/05/10 01:17:12;;;;;;;14.07;5.93;;;17.10;99.90;;;;;;5053354;28;20427;-37
2022/05/10 01:19:38;;;;;;;10.82;5.72;;;17.10;99.90;;;;;;5053257;28;20021;-39
2022/05/10 01:22:29;;;;;;;12.20;6.60;;;17.10;99.90;;;;;;5053296;28;20079;-37
2022/05/10 01:25:27;;;;;;;11.75;6.13;;;17.10;99.90;;;;;;5052536;28;20031;-39
2022/05/10 01:28:12;;;;;;;8.63;5.47;;;17.00;99.90;;;;;;5053144;28;20022;-35
2022/05/10 01:30:38;;;;;;;11.30;5.07;;;17.10;99.90;;;;;;5053114;28;20604;-38
2022/05/10 01:36:13;;;;;;;14.32;6.35;;;17.20;99.90;;;;;;5033157;28;20114;-37
2022/05/10 01:39:06;;;;;;;12.75;5.50;;;17.30;99.90;;;;;;5033330;28;20489;-36
2022/05/10 01:42:07;;;;;;;11.85;5.07;;;17.30;99.90;;;;;;5033125;28;20017;-37
2022/05/10 01:44:52;;;;;;;12.35;5.30;;;17.30;99.90;;;;;;5033043;28;20029;-37
2022/05/10 01:47:21;;;;;;;10.40;5.88;;;17.30;99.90;;;;;;5033090;28;20022;-37
2022/05/10 01:49:54;;;;;;;9.82;5.18;;;17.40;99.90;;;;;;5033029;28;20558;-37
2022/05/10 01:52:42;;;;;;;14.65;6.47;;;17.40;99.90;;;;;;5033106;28;20033;-36
2022/05/10 01:55:36;;;;;;;16.08;6.18;;;17.40;99.90;;;;;;5032933;28;20029;-30
2022/05/10 01:58:08;;;;;;;11.23;5.65;;;17.40;99.90;;;;;;5033028;28;20504;-36
2022/05/10 02:00:34;;;;;;;16.02;5.75;;;17.40;99.90;;;;;;5032840;28;20030;-29
2022/05/10 02:03:15;;;;;;;13.75;5.50;;;17.40;99.90;;;;;;5031520;28;20072;-35
2022/05/10 02:06:20;;;;;;;13.77;6.00;;;17.40;99.90;;;;;;5032841;28;20474;-29
2022/05/10 02:08:59;;;;;;;18.15;6.47;;;17.40;99.90;;;;;;5031878;28;20056;-34
2022/05/10 02:11:24;;;;;;;14.55;6.25;;;17.40;99.90;;;;;;5032814;28;20083;-30
2022/05/10 02:14:02;;;;;;;12.52;5.65;;;17.40;99.90;;;;;;5033181;28;20094;-44
2022/05/10 02:16:35;;;;;;;13.60;6.55;;;17.40;99.80;;;;;;5032809;28;20028;-38
2022/05/10 02:19:07;;;;;;;11.80;6.07;;;17.40;99.90;;;;;;5032696;28;20125;-34
2022/05/10 02:21:51;;;;;;;15.52;6.18;;;17.40;99.90;;;;;;5032586;28;20081;-29
2022/05/10 02:24:23;;;;;;;12.90;5.82;;;17.40;99.90;;;;;;5032717;28;20025;-29
2022/05/10 02:26:55;;;;;;;12.68;5.68;;;17.40;99.90;;;;;;5032699;28;20036;-29
2022/05/10 02:29:43;;;;;;;10.10;5.68;;;17.40;99.90;;;;;;5032749;28;20049;-32
2022/05/10 02:35:11;;;;;;;12.48;7.15;;;17.40;99.90;;;;;;5034456;28;20241;-29
2022/05/10 02:37:36;;;;;;;13.82;5.68;;;17.50;99.90;;;;;;5036261;28;20030;-31
2022/05/10 02:40:03;;;;;;;15.98;5.63;;;17.50;99.90;;;;;;5036178;28;20028;-29
2022/05/10 02:42:30;;;;;;;12.70;5.43;;;17.50;99.90;;;;;;5036207;28;20128;-33
2022/05/10 02:44:56;;;;;;;13.25;5.95;;;17.40;99.90;;;;;;5036424;28;20048;-43
2022/05/10 02:47:37;;;;;;;15.20;5.82;;;17.40;99.90;;;;;;5036099;28;20025;-31
2022/05/10 02:50:06;;;;;;;10.80;5.28;;;17.40;99.90;;;;;;5036003;28;20051;-28
2022/05/10 02:52:31;;;;;;;9.38;5.32;;;17.40;99.90;;;;;;5036005;28;20032;-30
2022/05/10 02:55:11;;;;;;;10.82;5.15;;;17.30;99.90;;;;;;5035968;28;20478;-28
2022/05/10 02:57:37;;;;;;;14.00;6.75;;;17.40;99.90;;;;;;5036308;28;20505;-30
2022/05/10 03:00:06;;;;;;;13.15;5.78;;;17.40;99.90;;;;;;5035783;28;20105;-28
2022/05/10 03:02:36;;;;;;;10.77;6.38;;;17.30;99.90;;;;;;5035495;28;20466;-29
2022/05/10 03:05:04;;;;;;;22.02;6.43;;;17.30;99.90;;;;;;5035824;28;20018;-37
2022/05/10 03:07:30;;;;;;;11.48;6.18;;;17.30;99.90;;;;;;5036040;28;20493;-28
2022/05/10 03:09:56;;;;;;;12.52;5.88;;;17.20;99.90;;;;;;5035930;28;20052;-46
2022/05/10 03:12:22;;;;;;;14.15;7.10;;;17.20;99.90;;;;;;5035892;28;20075;-37
2022/05/10 03:14:48;;;;;;;17.52;7.32;;;17.20;99.90;;;;;;5035900;28;20025;-33
2022/05/10 03:17:14;;;;;;;11.93;6.68;;;17.20;99.90;;;;;;5035586;28;20097;-29
2022/05/10 03:19:41;;;;;;;15.57;6.75;;;17.20;99.90;;;;;;5035213;28;20108;-29
2022/05/10 03:22:08;;;;;;;9.15;6.30;;;17.20;99.90;;;;;;5035451;28;20014;-29
2022/05/10 03:24:34;;;;;;;10.57;5.55;;;17.20;99.90;;;;;;5035752;28;20047;-29
2022/05/10 03:27:02;;;;;;;15.30;5.90;;;17.20;99.90;;;;;;5035361;28;20025;-32
2022/05/10 03:29:28;;;;;;;12.88;6.28;;;17.20;99.90;;;;;;5035593;28;20032;-33
2022/05/10 03:31:54;;;;;;;11.05;6.28;;;17.20;99.90;;;;;;5035547;28;20382;-29
2022/05/10 03:37:05;;;;;;;13.15;6.80;;;17.20;99.90;;;;;;5035408;28;20056;-28
2022/05/10 03:39:30;;;;;;;14.43;6.68;;;17.20;99.90;;;;;;5035079;28;20033;-32
2022/05/10 03:41:56;;;;;;;17.38;6.55;;;17.20;99.90;;;;;;5035410;28;20049;-30
2022/05/10 03:44:22;;;;;;;13.25;6.65;;;17.20;99.90;;;;;;5035069;28;20098;-29
2022/05/10 03:46:48;;;;;;;10.65;6.55;;;17.20;99.90;;;;;;5034290;28;20044;-30
2022/05/10 03:49:14;;;;;;;12.43;7.20;;;17.20;99.90;;;;;;5035022;28;20100;-28
2022/05/10 03:51:40;;;;;;;12.18;6.75;;;17.20;99.90;;;;;;5034952;28;20033;-29
2022/05/10 03:54:05;;;;;;;9.82;6.85;;;17.20;99.90;;;;;;5033592;28;20139;-35
2022/05/10 03:56:33;;;;;;;17.52;7.90;;;17.20;99.90;;;;;;5034820;28;20083;-29
2022/05/10 03:58:59;;;;;;;16.13;6.78;;;17.10;99.90;;;;;;5034974;28;20104;-29
2022/05/10 04:01:25;;;;;;;16.40;7.78;;;17.20;99.90;;;;;;5034729;28;20108;-36
2022/05/10 04:03:51;;;;;;;18.40;7.63;;;17.10;99.90;;;;;;5035029;28;20049;-34
2022/05/10 04:06:17;;;;;;;14.90;8.23;;;17.10;99.90;;;;;;5033030;28;20091;-35
2022/05/10 04:08:42;;;;;;;16.90;8.30;;;17.10;99.90;;;;;;5034587;28;20561;-31
2022/05/10 04:11:10;;;;;;;11.65;7.43;;;17.10;99.90;;;;;;5034516;28;20033;-28
2022/05/10 04:13:41;;;;;;;13.07;8.38;;;17.00;99.90;;;;;;5034547;28;20026;-31
2022/05/10 04:16:07;;;;;;;16.77;7.78;;;17.00;99.90;;;;;;5034550;28;20113;-37
2022/05/10 04:18:33;;;;;;;14.68;8.77;;;17.00;99.90;;;;;;5034636;28;20485;-30
2022/05/10 04:20:59;;;;;;;13.23;8.13;;;17.00;99.90;;;;;;5034319;28;20061;-30
2022/05/10 04:23:25;;;;;;;15.85;8.02;;;17.00;99.90;;;;;;5034569;28;20532;-31
2022/05/10 04:25:53;;;;;;;15.95;8.85;;;17.00;99.90;;;;;;5034315;28;20022;-29
2022/05/10 04:28:19;;;;;;;17.42;7.75;;;17.00;99.90;;;;;;5034235;28;20516;-47
2022/05/10 04:30:45;;;;;;;18.30;8.05;;;17.00;99.90;;;;;;5034452;28;20061;-37
2022/05/10 04:33:11;;;;;;;11.75;7.53;;;17.00;99.90;;;;;;5034342;28;20033;-37
2022/05/10 04:35:37;;;;;;;16.63;7.32;;;17.00;99.90;;;;;;5034296;28;20068;-36
2022/05/10 04:38:04;;;;;;;11.25;6.88;;;17.10;99.90;;;;;;5032347;28;20037;-36
2022/05/10 04:43:14;;;;;;;24.70;8.30;;;17.10;99.90;;;;;;5034238;28;20040;-28
2022/05/10 04:45:40;;;;;;;12.93;7.20;;;17.10;99.90;;;;;;5032606;28;20021;-32
2022/05/10 04:48:06;;;;;;;14.13;7.28;;;17.10;99.90;;;;;;5034108;28;20047;-31
2022/05/10 04:50:32;;;;;;;21.77;7.18;;;17.20;99.90;;;;;;5033848;28;20076;-45
2022/05/10 04:52:57;;;;;;;14.25;6.97;;;17.20;99.90;;;;;;5033750;28;20061;-46
2022/05/10 04:55:23;;;;;;;17.00;7.53;;;17.20;99.90;;;;;;5033724;28;20036;-37
2022/05/10 04:57:49;;;;;;;15.70;7.35;;;17.20;99.90;;;;;;5032398;28;20036;-40
2022/05/10 05:00:15;;;;;;;13.10;7.05;;;17.30;99.90;;;;;;5033840;28;20037;-37
2022/05/10 05:02:42;;;;;;;12.23;6.80;;;17.30;99.90;;;;;;5032250;28;20525;-37
2022/05/10 05:05:10;;;;;;;15.50;7.57;;;17.30;99.90;;;;;;5033540;28;20026;-51
2022/05/10 05:07:35;;;;;;;12.07;6.63;;;17.40;99.90;;;;;;5033452;28;20116;-31
2022/05/10 05:10:05;;;;;;;16.20;6.97;;;17.40;99.90;;;;;;5032117;28;20112;-30
2022/05/10 05:12:34;;;;;;;15.25;7.15;;;17.40;99.90;;;;;;5033457;28;20040;-32
2022/05/10 05:15:01;;;;;;;14.15;6.32;;;17.50;99.90;;;;;;5033379;28;20032;-32
2022/05/10 05:17:26;;;;;;;15.20;6.97;;;17.50;99.90;;;;;;5033441;28;20555;-40
2022/05/10 05:19:52;;;;;;;12.30;7.03;;;17.50;99.90;;;;;;5032091;28;20050;-29
2022/05/10 05:22:18;;;;;;;11.38;6.53;;;17.50;99.90;;;;;;5033306;28;20032;-29
2022/05/10 05:24:46;;;;;;;11.68;6.25;;;17.60;99.90;;;;;;5033234;28;20040;-31
2022/05/10 05:27:12;;;;;;;13.13;6.97;;;17.60;99.90;;;;;;5033234;28;20029;-29
2022/05/10 05:29:38;;;;;;;15.93;6.18;;;17.60;99.90;;;;;;5033310;28;20558;-29
2022/05/10 05:32:08;;;;;;;17.35;6.75;;;17.60;99.90;;;;;;5033299;28;20493;-39
2022/05/10 05:34:35;;;;;;;12.52;6.57;;;17.70;99.90;;;;;;5045157;28;20108;-38
2022/05/10 05:39:45;;;;;;;12.45;6.18;;;17.70;99.90;;;;;;5052955;28;20051;-37
2022/05/10 05:42:11;;;;;;;16.25;7.38;;;17.70;99.90;;;;;;5053259;28;20384;-36
2022/05/10 05:44:36;;;;;;;11.20;5.88;;;17.80;99.90;;;;;;5052968;28;20517;-36
2022/05/10 05:47:02;;;;;;;10.85;6.95;;;17.80;99.90;;;;;;5051835;28;20083;-36
2022/05/10 05:49:28;;;;;;;12.63;6.80;;;17.90;99.90;;;;;;5053201;28;20044;-37
2022/05/10 05:52:02;;;;;;;14.13;6.68;;;18.00;99.90;;;;;;5051278;28;20041;-38
2022/05/10 05:54:28;;;;;;;14.90;8.18;;;18.00;99.90;;;;;;5052914;28;20021;-37
2022/05/10 05:57:04;;;;;;;11.45;6.85;;;18.00;99.90;;;;;;5052819;28;20078;-38
2022/05/10 05:59:31;;;;;;;12.68;7.10;;;18.00;99.90;;;;;;5052919;28;20473;-36
2022/05/10 06:01:57;;;;;;;14.27;6.63;;;18.10;99.90;;;;;;5052769;28;20032;-38
2022/05/10 06:04:23;;;;;;;10.95;5.97;;;18.30;99.90;;;;;;5051421;28;20090;-31
2022/05/10 06:06:51;;;;;;;18.88;6.93;;;18.30;99.90;;;;;;5052756;28;20048;-28
2022/05/10 06:09:24;;;;;;;11.82;6.22;;;18.40;99.90;;;;;;5052952;28;20039;-31
2022/05/10 06:11:50;;;;;;;15.35;6.45;;;18.50;99.90;;;;;;5056955;28;20025;-30
2022/05/10 06:14:16;;;;;;;13.02;6.65;;;18.60;99.90;;;;;;5055433;28;20123;-28
2022/05/10 06:16:42;;;;;;;17.70;6.63;;;18.80;99.90;;;;;;5055636;28;20469;-32
2022/05/10 06:19:09;;;;;;;12.07;6.22;;;19.00;99.80;;;;;;5056458;28;20116;-31
2022/05/10 06:21:34;;;;;;;19.20;6.47;;;19.30;99.60;;;;;;5056351;28;20535;-32
2022/05/10 06:24:01;;;;;;;17.08;6.28;;;19.50;98.70;;;;;;5056709;28;20021;-29
2022/05/10 06:26:26;;;;;;;11.05;5.40;;;19.60;98.60;;;;;;5054887;28;20087;-33
2022/05/10 06:28:52;;;;;;;11.63;6.13;;;19.70;98.70;;;;;;5056230;28;20029;-31
2022/05/10 06:31:17;;;;;;;14.48;5.60;;;19.70;98.30;;;;;;5056366;28;20037;-30
2022/05/10 06:33:43;;;;;;;10.80;5.20;;;19.70;98.20;;;;;;5050933;28;20033;-29
2022/05/10 06:36:09;;;;;;;18.65;5.78;;;19.70;98.20;;;;;;5035016;28;20033;-32
2022/05/10 06:38:36;;;;;;;15.98;4.70;;;19.80;98.10;;;;;;5036154;28;20030;-31
2022/05/10 06:41:04;;;;;;;14.02;5.47;;;19.70;98.00;;;;;;5036499;28;20030;-31
2022/05/10 06:43:36;;;;;;;10.52;4.75;;;19.80;97.80;;;;;;5036406;28;20033;-32
2022/05/10 06:46:13;;;;;;;11.57;4.65;;;19.80;97.70;;;;;;5036164;28;20029;-38
2022/05/10 06:48:39;;;;;;;11.05;4.35;;;19.90;97.70;;;;;;5036110;28;20509;-38
2022/05/10 06:51:07;;;;;;;10.18;4.78;;;20.00;97.80;;;;;;5036341;28;20104;-37
2022/05/10 06:53:33;;;;;;;7.90;4.50;;;20.00;97.70;;;;;;5036027;28;20509;-32
2022/05/10 06:55:58;;;;;;;9.27;4.22;;;20.10;97.50;;;;;;5034708;28;20037;-33
2022/05/10 06:58:24;;;;;;;9.43;4.65;;;20.20;97.60;;;;;;5036086;28;20032;-49
2022/05/10 07:00:50;;;;;;;13.10;5.22;;;20.20;97.50;;;;;;5035888;28;20026;-38
2022/05/10 07:03:22;;;;;;;13.15;5.13;;;20.30;97.50;;;;;;5035765;28;20130;-37
2022/05/10 07:05:47;;;;;;;10.45;4.53;;;20.30;97.50;;;;;;5035750;28;20026;-37
2022/05/10 07:08:13;;;;;;;13.88;5.82;;;20.40;97.60;;;;;;5035735;28;20596;-38
2022/05/10 07:10:39;;;;;;;8.45;5.00;;;20.40;97.70;;;;;;5035772;28;20112;-38
2022/05/10 07:13:05;;;;;;;13.85;4.88;;;20.40;97.50;;;;;;5035597;28;20100;-37
2022/05/10 07:15:31;;;;;;;11.00;4.70;;;20.50;97.60;;;;;;5035929;28;20448;-67
2022/05/10 07:17:57;;;;;;;15.13;5.03;;;20.50;97.40;;;;;;5035537;28;20105;-30
2022/05/10 07:20:23;;;;;;;10.80;5.40;;;20.50;97.60;;;;;;5035217;28;20045;-29
2022/05/10 07:22:49;;;;;;;8.38;4.55;;;20.60;97.80;;;;;;5034574;28;20037;-29
2022/05/10 07:25:23;;;;;;;10.98;4.85;;;20.60;97.60;;;;;;5035452;28;20040;-33
2022/05/10 07:27:48;;;;;;;13.95;5.22;;;20.70;97.60;;;;;;5035426;28;20036;-33
2022/05/10 07:30:15;;;;;;;8.45;4.97;;;20.80;97.70;;;;;;5035387;28;20025;-30
2022/05/10 07:32:41;;;;;;;11.57;5.80;;;20.80;97.80;;;;;;5035541;28;20029;-30
2022/05/10 07:35:07;;;;;;;7.00;5.43;;;20.70;97.80;;;;;;5033794;28;20033;-30
2022/05/10 07:37:38;;;;;;;11.98;5.60;;;20.80;97.50;;;;;;5035457;28;20477;-40
2022/05/10 07:40:04;;;;;;;8.13;5.30;;;20.90;97.70;;;;;;5035100;28;20026;-40
2022/05/10 07:42:30;;;;;;;11.75;4.68;;;20.90;97.60;;;;;;5035117;28;20037;-35
2022/05/10 07:44:56;;;;;;;6.03;4.55;;;20.90;97.80;;;;;;5035039;28;20485;-33
2022/05/10 07:47:21;;;;;;;6.93;4.70;;;20.90;97.70;;;;;;5035011;28;20025;-32
2022/05/10 07:49:47;;;;;;;10.82;4.95;;;21.00;97.70;;;;;;5034911;28;20025;-32
2022/05/10 07:52:13;;;;;;;10.35;5.30;;;21.00;98.00;;;;;;5034942;28;20041;-31
2022/05/10 07:54:39;;;;;;;12.32;5.55;;;21.00;97.80;;;;;;5034903;28;20454;-32
2022/05/10 07:57:05;;;;;;;8.40;5.90;;;21.00;98.00;;;;;;5034786;28;20106;-30
2022/05/10 07:59:31;;;;;;;8.13;5.05;;;20.90;98.00;;;;;;5034695;28;20077;-32
2022/05/10 08:01:57;;;;;;;11.88;6.10;;;21.00;98.10;;;;;;5034657;28;20026;-30
2022/05/10 08:04:23;;;;;;;8.75;6.40;;;21.10;98.10;;;;;;5034789;28;20056;-31
2022/05/10 08:06:49;;;;;;;11.60;6.13;;;21.10;98.10;;;;;;5034584;28;20107;-32
2022/05/10 08:09:15;;;;;;;9.90;6.60;;;21.20;98.10;;;;;;5032950;28;20037;-30
2022/05/10 08:11:41;;;;;;;11.45;5.13;;;21.30;97.90;;;;;;5034482;28;20394;-41
2022/05/10 08:14:07;;;;;;;16.13;5.88;;;21.60;98.10;;;;;;5034537;28;20111;-30
2022/05/10 08:16:33;;;;;;;8.38;5.88;;;21.80;98.00;;;;;;5034774;28;20068;-46
2022/05/10 08:18:59;;;;;;;9.07;5.82;;;22.10;97.60;;;;;;5034435;28;20029;-35
2022/05/10 08:21:25;;;;;;;8.90;5.93;;;22.40;97.50;;;;;;5033161;28;20496;-55
2022/05/10 08:23:53;;;;;;;13.45;5.43;;;22.50;97.20;;;;;;5034662;28;20045;-37
2022/05/10 08:26:20;;;;;;;21.35;7.38;;;22.70;97.10;;;;;;5034314;28;20088;-30
2022/05/10 08:28:46;;;;;;;9.15;4.72;;;22.90;97.20;;;;;;5034169;28;20036;-29
2022/05/10 08:31:12;;;;;;;7.68;4.60;;;23.10;96.80;;;;;;5034413;28;20021;-31
2022/05/10 08:33:41;;;;;;;5.00;4.53;;;23.40;96.70;;;;;;5033751;28;20036;-32
2022/05/10 08:36:11;;;;;;;6.57;4.72;;;23.50;96.60;;;;;;5032735;28;20120;-29
2022/05/10 08:38:37;;;;;;;8.75;4.70;;;23.60;96.20;;;;;;5032826;28;20021;-29
2022/05/10 08:41:21;;;;;;;9.30;4.10;;;23.80;95.70;;;;;;5033942;28;20021;-31
2022/05/10 08:44:07;;;;;;;8.45;4.40;;;24.00;95.70;;;;;;5033918;28;20022;-33
2022/05/10 08:46:38;;;;;;;6.82;4.72;;;24.30;95.60;;;;;;5033847;28;20021;-31
2022/05/10 08:49:12;;;;;;;5.60;4.25;;;24.50;95.20;;;;;;5033955;28;20058;-29
2022/05/10 08:51:37;;;;;;;7.50;4.32;;;24.80;95.30;;;;;;5033819;28;20530;-28
2022/05/10 08:54:03;;;;;;;6.65;4.20;;;25.00;94.90;;;;;;5033873;28;20113;-29
2022/05/10 08:56:34;;;;;;;7.25;4.50;;;25.10;94.40;;;;;;5033712;28;20033;-30
2022/05/10 08:59:14;;;;;;;8.32;4.18;;;25.10;93.90;;;;;;5033870;28;20026;-32
2022/05/10 09:02:22;;;;;;;13.05;3.92;;;25.00;94.30;;;;;;5033574;28;20036;-28
2022/05/10 09:05:00;;;;;;;5.80;3.85;;;25.10;94.50;;;;;;5027769;28;20486;-34
2022/05/10 09:07:31;;;;;;;7.80;3.92;;;25.30;94.30;;;;;;5033883;28;20025;-28
2022/05/10 09:10:01;;;;;;;8.65;4.07;;;25.20;94.00;;;;;;5033476;28;20503;-28
2022/05/10 09:12:29;;;;;;;7.97;4.20;;;25.10;94.00;;;;;;5032184;28;20060;-29
2022/05/10 09:14:57;;;;;;;6.30;4.38;;;24.90;94.00;;;;;;5033395;28;20565;-28
2022/05/10 09:17:26;;;;;;;13.90;4.32;;;24.60;94.30;;;;;;5033350;28;20064;-28
2022/05/10 09:19:52;;;;;;;11.32;4.55;;;24.40;94.60;;;;;;5033164;28;20582;-31
2022/05/10 09:22:48;;;;;;;8.35;4.30;;;24.40;94.50;;;;;;5033402;28;20101;-33
2022/05/10 09:25:34;;;;;;;13.05;4.00;;;24.80;94.30;;;;;;5033293;28;20109;-27
2022/05/10 09:28:28;;;;;;;9.95;4.63;;;25.00;94.30;;;;;;5033247;28;20026;-34
2022/05/10 09:36:31;;;;;;;6.63;3.75;;;24.90;94.20;;;;;;5033442;28;20052;-29
2022/05/10 09:39:21;;;;;;;8.32;3.83;;;24.70;94.60;;;;;;5033429;28;20104;-28
2022/05/10 09:41:52;;;;;;;8.50;4.43;;;24.40;95.00;;;;;;5033453;28;20474;-27
2022/05/10 09:44:20;;;;;;;10.45;4.20;;;24.40;95.00;;;;;;5032924;28;20021;-31
2022/05/10 09:46:46;;;;;;;10.80;5.22;;;24.40;94.90;;;;;;5033313;28;20026;-31
2022/05/10 09:49:34;;;;;;;9.07;3.90;;;24.40;94.80;;;;;;5033040;28;20473;-30
2022/05/10 09:51:59;;;;;;;11.77;4.38;;;24.40;94.50;;;;;;5033040;28;20080;-33
2022/05/10 09:54:38;;;;;;;6.22;3.95;;;24.40;94.70;;;;;;5033225;28;20029;-32
2022/05/10 09:57:06;;;;;;;13.05;4.53;;;24.40;94.70;;;;;;5033277;28;20176;-30
2022/05/10 09:59:52;;;;;;;11.35;4.05;;;24.40;94.80;;;;;;5032843;28;20076;-30
2022/05/10 10:02:27;;;;;;;8.00;3.20;;;24.30;94.80;;;;;;5032710;28;20036;-32
2022/05/10 10:04:52;;;;;;;5.13;3.35;;;24.30;94.30;;;;;;5033087;28;20501;-32
2022/05/10 10:07:25;;;;;;;7.63;2.35;;;24.40;94.50;;;;;;5032952;28;20025;-35
2022/05/10 10:09:56;;;;;;;5.57;2.67;;;24.60;94.00;;;;;;5033065;28;20088;-32
2022/05/10 10:12:35;;;;;;;5.50;2.97;;;24.80;93.90;;;;;;5033003;28;20026;-32
2022/05/10 10:15:17;;;;;;;6.88;3.28;;;25.00;93.70;;;;;;5032798;28;20033;-33
2022/05/10 10:17:50;;;;;;;12.10;3.22;;;25.20;93.40;;;;;;5033035;28;20390;-32
2022/05/10 10:20:32;;;;;;;5.05;2.47;;;25.20;93.20;;;;;;5032562;28;20124;-32
2022/05/10 10:23:01;;;;;;;7.57;2.45;;;25.40;93.40;;;;;;5031106;28;20061;-29
2022/05/10 10:25:40;;;;;;;4.32;2.50;;;25.60;92.60;;;;;;5032696;28;20381;-32
2022/05/10 10:28:15;;;;;;;11.73;2.80;;;25.70;92.00;;;;;;5032721;28;20020;-33
2022/05/10 10:34:15;;;;;;;10.02;2.70;;;25.40;92.50;;;;;;5032851;28;20378;-47
2022/05/10 10:37:04;;;;;;;5.15;2.13;;;25.30;92.90;;;;;;5031055;28;20033;-41
2022/05/10 10:39:58;;;;;;;4.47;2.90;;;25.10;92.50;;;;;;5031081;28;20045;-37
2022/05/10 10:42:49;;;;;;;4.97;2.60;;;24.90;92.80;;;;;;5032524;28;20060;-67
2022/05/10 10:45:16;;;;;;;8.13;2.88;;;25.30;93.10;;;;;;5032471;28;20105;-37
2022/05/10 10:48:05;;;;;;;3.60;2.65;;;25.60;92.50;;;;;;5032485;28;20553;-37
2022/05/10 10:50:33;;;;;;;6.55;2.53;;;25.80;92.40;;;;;;5032485;28;20429;-37
2022/05/10 10:53:01;;;;;;;5.30;3.08;;;25.70;92.50;;;;;;5032200;28;20057;-37
2022/05/10 10:55:54;;;;;;;4.22;2.88;;;25.40;92.40;;;;;;5032945;28;20549;-39
2022/05/10 10:58:35;;;;;;;4.57;2.83;;;25.50;91.90;;;;;;5035938;28;20551;-30
2022/05/10 11:01:22;;;;;;;5.70;3.17;;;25.60;92.00;;;;;;5034693;28;20437;-29
2022/05/10 11:03:59;;;;;;;7.50;2.80;;;25.70;91.90;;;;;;5035906;28;20052;-29
2022/05/10 11:06:27;;;;;;;8.77;2.60;;;25.90;91.90;;;;;;5035837;28;20025;-37
2022/05/10 11:09:25;;;;;;;11.40;3.20;;;26.00;91.90;;;;;;5035983;28;20026;-37
2022/05/10 11:12:09;;;;;;;7.05;3.55;;;26.10;91.80;;;;;;5035649;28;20068;-37
2022/05/10 11:14:53;;;;;;;6.30;3.65;;;25.90;91.80;;;;;;5034258;28;20422;-38
2022/05/10 11:17:49;;;;;;;7.55;3.45;;;25.80;91.80;;;;;;5035736;28;20033;-38
2022/05/10 11:20:37;;;;;;;3.15;2.60;;;25.40;92.40;;;;;;5035483;28;20049;-37
2022/05/10 11:23:06;;;;;;;21.20;5.03;;;25.30;92.60;;;;;;5035549;28;20095;-37
2022/05/10 11:25:39;;;;;;;8.95;3.25;;;25.10;92.60;;;;;;5035650;28;20087;-38
2022/05/10 11:28:29;;;;;;;11.00;2.70;;;25.10;92.70;;;;;;5035481;28;20095;-38
2022/05/10 11:31:32;;;;;;;10.23;3.03;;;25.30;92.20;;;;;;5035237;28;20038;-37
2022/05/10 11:34:13;;;;;;;5.55;2.40;;;25.30;91.10;;;;;;5035479;28;20065;-36
2022/05/10 11:36:42;;;;;;;9.48;2.90;;;25.20;91.60;;;;;;5035223;28;20034;-38
2022/05/10 11:39:26;;;;;;;3.65;2.50;;;25.10;92.30;;;;;;5035327;28;20037;-37
2022/05/10 11:42:19;;;;;;;7.25;2.92;;;24.90;92.30;;;;;;5035139;28;20021;-37
2022/05/10 11:44:51;;;;;;;15.55;3.92;;;24.80;92.40;;;;;;5035066;28;20469;-37
2022/05/10 11:47:31;;;;;;;5.88;3.40;;;24.70;92.50;;;;;;5035046;28;20104;-37
2022/05/10 11:50:15;;;;;;;7.43;3.28;;;24.40;93.20;;;;;;5035088;28;20035;-36
2022/05/10 11:53:18;;;;;;;11.75;2.90;;;24.50;93.00;;;;;;5034842;28;20112;-37
2022/05/10 11:55:56;;;;;;;3.78;3.20;;;24.80;93.50;;;;;;5033449;28;20056;-37
2022/05/10 11:58:27;;;;;;;7.45;4.15;;;25.10;93.00;;;;;;5035101;28;20513;-40
2022/05/10 12:00:56;;;;;;;5.85;3.88;;;25.10;92.90;;;;;;5033231;28;20033;-37
2022/05/10 12:03:43;;;;;;;5.53;3.30;;;25.10;93.10;;;;;;5034630;28;20026;-38
2022/05/10 12:06:24;;;;;;;10.63;3.38;;;25.40;92.60;;;;;;5034682;28;20077;-37
2022/05/10 12:09:01;;;;;;;7.90;3.33;;;25.80;92.90;;;;;;5034101;28;20021;-38
2022/05/10 12:11:32;;;;;;;4.53;3.15;;;26.10;92.20;;;;;;5034508;28;20017;-38
2022/05/10 12:22:20;;;;;;;12.80;3.33;;;26.30;92.10;;;;;;5034369;28;20044;-38
2022/05/10 12:24:52;;;;;;;7.90;4.13;;;26.40;92.60;;;;;;5034588;28;20076;-39
2022/05/10 12:27:20;;;;;;;8.40;4.07;;;26.20;91.90;;;;;;5034301;28;20043;-54
2022/05/10 12:29:46;;;;;;;12.82;3.53;;;26.00;92.40;;;;;;5034238;28;20470;-38
2022/05/10 12:32:39;;;;;;;8.27;4.25;;;25.70;92.80;;;;;;5034134;28;20100;-36
2022/05/10 12:35:07;;;;;;;14.77;4.25;;;25.30;92.80;;;;;;5033713;28;20484;-56
2022/05/10 12:37:35;;;;;;;3.72;3.03;;;25.20;93.20;;;;;;5034132;28;20072;-38
2022/05/10 12:40:03;;;;;;;7.72;4.30;;;25.10;93.60;;;;;;5034231;28;20429;-38
2022/05/10 12:42:36;;;;;;;6.80;3.63;;;25.10;92.90;;;;;;5034018;28;20420;-44
2022/05/10 12:45:02;;;;;;;9.32;4.47;;;25.20;92.80;;;;;;5033935;28;20032;-55
2022/05/10 12:47:50;;;;;;;12.43;4.00;;;25.10;92.80;;;;;;5034223;28;20108;-38
2022/05/10 12:50:44;;;;;;;5.03;3.63;;;25.00;93.20;;;;;;5033786;28;20029;-38
2022/05/10 12:53:42;;;;;;;2.83;2.50;;;24.50;92.90;;;;;;5032502;28;20108;-59
2022/05/10 12:56:20;;;;;;;5.57;3.22;;;24.40;92.70;;;;;;5033872;28;20033;-37
2022/05/10 12:58:52;;;;;;;6.03;2.83;;;24.10;93.20;;;;;;5033600;28;20025;-45
2022/05/10 13:01:20;;;;;;;5.05;2.25;;;24.10;93.20;;;;;;5033969;28;20045;-38
2022/05/10 13:04:17;;;;;;;9.45;3.20;;;24.00;93.20;;;;;;5033438;28;20027;-38
2022/05/10 13:06:48;;;;;;;;;;;24.10;93.30;;;;;;5033560;28;20033;-40
2022/05/10 13:09:31;;;;;;;5.63;2.40;;;23.90;92.70;;;;;;5033487;28;19905;-31
2022/05/10 13:12:03;;;;;;;4.38;2.80;;;23.80;92.60;;;;;;5033559;28;20076;-33
2022/05/10 13:14:34;;;;;;;6.05;1.85;;;23.40;92.50;;;;;;5032126;28;20051;-33
2022/05/10 13:17:00;;;;;;;11.10;1.85;;;23.10;92.60;;;;;;5033445;28;20025;-34
2022/05/10 13:19:28;;;;;;;8.77;1.75;;;23.00;92.70;;;;;;5032332;28;20026;-33
2022/05/10 13:21:55;;;;;;;7.80;2.13;;;23.00;92.70;;;;;;5033337;28;20032;-31
2022/05/10 13:24:21;;;;;;;4.78;1.95;;;23.00;92.80;;;;;;5031992;28;20087;-34
2022/05/10 13:26:59;;;;;;;10.18;1.90;;;23.00;92.70;;;;;;5033322;28;20585;-34
2022/05/10 13:29:48;;;;;;;5.63;2.17;;;23.20;92.70;;;;;;5033271;28;20500;-38
2022/05/10 13:32:27;;;;;;;12.18;2.10;;;23.00;92.70;;;;;;5033440;28;20025;-31
2022/05/10 13:34:54;;;;;;;4.80;1.95;;;23.10;92.80;;;;;;5033217;28;20422;-33
2022/05/10 13:37:31;;;;;;;11.15;1.98;;;23.00;92.90;;;;;;5033090;28;20120;-30